Time;durP1;ratioP1;P1;durP2;ratioP2;P2;SDS_P1;SDS_P2;PMS_P1;PMS_P2;Temp;Humidity;BMP_temperature;BMP_pressure;BME280_temperature;BME280_humidity;BME280_pressure;Samples;Min_cycle;Max_cycle;Signal;HPM_P1;HPM_P2
2021/03/01 00:01:38;;;;;;;36.17;13.13;;;5.20;91.50;;;;;;5070768;28;20036;-71
2021/03/01 00:04:04;;;;;;;36.37;13.43;;;5.30;91.50;;;;;;5071769;28;20158;-71
2021/03/01 00:06:30;;;;;;;31.40;12.47;;;5.20;91.50;;;;;;5053365;28;20040;-69
2021/03/01 00:08:55;;;;;;;35.67;13.20;;;5.20;91.50;;;;;;5071335;28;20484;-69
2021/03/01 00:11:21;;;;;;;36.57;13.37;;;5.20;91.50;;;;;;5070974;28;20066;-70
2021/03/01 00:13:46;;;;;;;32.20;12.47;;;5.20;91.60;;;;;;5070995;28;20044;-71
2021/03/01 00:16:12;;;;;;;37.30;13.10;;;5.20;91.40;;;;;;5071435;28;20063;-70
2021/03/01 00:18:38;;;;;;;36.87;13.03;;;5.20;91.60;;;;;;5071664;28;20063;-70
2021/03/01 00:21:03;;;;;;;34.20;12.93;;;5.20;91.70;;;;;;5070625;28;20032;-68
2021/03/01 00:23:29;;;;;;;33.20;13.33;;;5.20;91.70;;;;;;5036732;28;20037;-66
2021/03/01 00:25:54;;;;;;;31.73;12.90;;;5.30;91.80;;;;;;5070691;28;20496;-67
2021/03/01 00:28:20;;;;;;;31.90;12.43;;;5.30;91.80;;;;;;5071419;28;20043;-66
2021/03/01 00:30:46;;;;;;;33.97;13.73;;;5.30;91.80;;;;;;5036468;28;20028;-70
2021/03/01 00:33:11;;;;;;;28.00;11.70;;;5.30;91.80;;;;;;5053902;28;20028;-70
2021/03/01 00:35:37;;;;;;;34.30;13.10;;;5.30;91.70;;;;;;5071805;28;20048;-72
2021/03/01 00:38:03;;;;;;;33.13;12.60;;;5.40;91.50;;;;;;5071117;28;20539;-72
2021/03/01 00:40:29;;;;;;;35.67;13.47;;;5.30;91.50;;;;;;5071550;28;20041;-73
2021/03/01 00:42:55;;;;;;;37.83;12.93;;;5.30;91.40;;;;;;5054083;28;20033;-73
2021/03/01 00:45:21;;;;;;;33.03;11.57;;;5.20;91.50;;;;;;5071150;28;20048;-71
2021/03/01 00:47:46;;;;;;;31.87;12.30;;;5.20;91.70;;;;;;5053934;28;20116;-71
2021/03/01 00:50:13;;;;;;;33.53;12.87;;;5.20;91.80;;;;;;5053543;28;20033;-72
2021/03/01 00:52:39;;;;;;;34.70;13.27;;;5.20;91.90;;;;;;5053094;28;20032;-70
2021/03/01 00:55:07;;;;;;;32.80;13.27;;;5.30;92.00;;;;;;5033576;28;20036;-72
2021/03/01 00:57:32;;;;;;;31.73;12.60;;;5.30;91.90;;;;;;5055525;28;20044;-70
2021/03/01 00:59:59;;;;;;;32.90;12.00;;;5.30;91.80;;;;;;5036400;28;20374;-70
2021/03/01 01:02:25;;;;;;;38.40;11.97;;;5.30;91.90;;;;;;5070564;28;20063;-70
2021/03/01 01:05:11;;;;;;;31.97;12.60;;;5.30;92.10;;;;;;5052827;28;20045;-70
2021/03/01 01:07:37;;;;;;;33.30;12.33;;;5.30;91.70;;;;;;5070590;28;20044;-71
2021/03/01 01:10:06;;;;;;;36.20;12.60;;;5.30;91.70;;;;;;5069580;28;20043;-71
2021/03/01 01:12:35;;;;;;;32.43;12.90;;;5.30;91.60;;;;;;5070483;28;20033;-71
2021/03/01 01:15:03;;;;;;;33.80;13.13;;;5.30;91.70;;;;;;5052565;28;20040;-70
2021/03/01 01:17:29;;;;;;;36.00;13.73;;;5.20;91.90;;;;;;5070825;28;20041;-70
2021/03/01 01:19:54;;;;;;;35.90;12.60;;;5.30;92.00;;;;;;5052693;28;20123;-70
2021/03/01 01:22:20;;;;;;;36.03;13.70;;;5.30;92.00;;;;;;5035278;28;20086;-70
2021/03/01 01:24:45;;;;;;;32.30;13.73;;;5.30;92.00;;;;;;5070675;28;20055;-70
2021/03/01 01:27:11;;;;;;;31.33;12.90;;;5.30;92.00;;;;;;5051836;28;20052;-71
2021/03/01 01:29:36;;;;;;;35.17;13.67;;;5.30;91.70;;;;;;5070499;28;20037;-71
2021/03/01 01:32:03;;;;;;;36.63;13.40;;;5.40;91.90;;;;;;5070191;28;20044;-71
2021/03/01 01:34:28;;;;;;;34.83;12.73;;;5.30;92.00;;;;;;5070312;28;20048;-70
2021/03/01 01:36:54;;;;;;;33.00;12.97;;;5.30;92.00;;;;;;5070590;28;20044;-71
2021/03/01 01:39:19;;;;;;;32.07;12.60;;;5.30;91.90;;;;;;5070501;28;20064;-70
2021/03/01 01:41:45;;;;;;;29.70;11.33;;;5.40;92.00;;;;;;5069679;28;20025;-74
2021/03/01 01:44:11;;;;;;;33.80;13.33;;;5.40;91.90;;;;;;5070614;28;20048;-73
2021/03/01 01:46:36;;;;;;;32.10;12.63;;;5.40;91.90;;;;;;5069927;28;20040;-71
2021/03/01 01:49:02;;;;;;;32.10;12.60;;;5.40;91.90;;;;;;5070548;28;21355;-72
2021/03/01 01:51:28;;;;;;;31.53;11.83;;;5.40;91.80;;;;;;5069141;28;20055;-70
2021/03/01 01:53:54;;;;;;;29.23;11.63;;;5.30;91.80;;;;;;5069601;28;20029;-70
2021/03/01 01:56:20;;;;;;;29.83;10.70;;;5.30;91.70;;;;;;5052438;28;20041;-70
2021/03/01 01:58:46;;;;;;;28.90;11.00;;;5.30;91.80;;;;;;5070030;28;20049;-69
2021/03/01 02:01:11;;;;;;;33.87;12.30;;;5.30;91.90;;;;;;5035457;28;20040;-69
2021/03/01 02:03:58;;;;;;;26.57;10.67;;;5.30;91.90;;;;;;5070275;28;20496;-67
2021/03/01 02:06:45;;;;;;;29.90;10.50;;;5.30;91.90;;;;;;5073546;28;20355;-67
2021/03/01 02:09:49;;;;;;;26.90;10.83;;;5.40;91.80;;;;;;5062864;28;20094;-66
2021/03/01 02:12:20;;;;;;;27.47;10.97;;;5.30;91.80;;;;;;5069562;28;20043;-67
2021/03/01 02:14:57;;;;;;;26.53;10.90;;;5.30;91.90;;;;;;5052959;28;20043;-72
2021/03/01 02:17:23;;;;;;;27.40;11.00;;;5.30;91.90;;;;;;5070021;28;20409;-71
2021/03/01 02:19:48;;;;;;;26.87;10.57;;;5.30;91.80;;;;;;5069378;28;20036;-71
2021/03/01 02:22:14;;;;;;;26.20;10.47;;;5.30;91.90;;;;;;5071564;28;20040;-71
2021/03/01 02:24:48;;;;;;;27.80;10.90;;;5.30;91.90;;;;;;5073675;28;20024;-71
2021/03/01 02:27:19;;;;;;;24.77;10.70;;;5.30;91.90;;;;;;5073649;28;20040;-71
2021/03/01 02:29:46;;;;;;;25.50;10.27;;;5.40;91.90;;;;;;5073118;28;20085;-71
2021/03/01 02:32:14;;;;;;;28.70;10.43;;;5.30;91.80;;;;;;5073451;28;20037;-71
2021/03/01 02:34:42;;;;;;;29.70;11.20;;;5.30;91.90;;;;;;5072951;28;20032;-71
2021/03/01 02:37:11;;;;;;;26.87;10.60;;;5.40;91.80;;;;;;5073543;28;20042;-71
2021/03/01 02:39:42;;;;;;;28.67;11.33;;;5.40;91.80;;;;;;5094572;22;21129;-68
2021/03/01 02:42:08;;;;;;;;;;;5.40;91.90;;;;;;5078176;28;20057;-68
2021/03/01 02:44:35;;;;;;;28.07;10.73;;;5.40;91.90;;;;;;5081017;28;19916;-68
2021/03/01 02:47:01;;;;;;;29.17;10.70;;;5.30;91.90;;;;;;5044263;28;20065;-68
2021/03/01 02:49:28;;;;;;;26.53;10.70;;;5.40;92.00;;;;;;5062903;28;20450;-70
2021/03/01 02:51:55;;;;;;;27.60;11.53;;;5.40;92.00;;;;;;5065329;28;20036;-68
2021/03/01 02:54:23;;;;;;;25.70;9.80;;;5.40;91.90;;;;;;5068479;28;20040;-69
2021/03/01 02:56:51;;;;;;;24.43;10.20;;;5.40;91.70;;;;;;5081484;28;20118;-68
2021/03/01 02:59:19;;;;;;;23.37;10.00;;;5.30;91.80;;;;;;5079752;28;20492;-68
2021/03/01 03:01:46;;;;;;;24.13;10.40;;;5.40;92.00;;;;;;5078172;28;20029;-68
2021/03/01 03:04:12;;;;;;;22.83;9.63;;;5.30;91.90;;;;;;5037304;28;20470;-68
2021/03/01 03:06:38;;;;;;;25.40;9.87;;;5.30;91.90;;;;;;5055173;28;20122;-67
2021/03/01 03:09:09;;;;;;;21.97;9.27;;;5.40;91.90;;;;;;5060496;28;20454;-68
2021/03/01 03:11:37;;;;;;;22.50;10.20;;;5.30;91.90;;;;;;5087763;28;20506;-68
2021/03/01 03:14:07;;;;;;;21.80;9.43;;;5.40;92.00;;;;;;5076077;28;20407;-69
2021/03/01 03:16:33;;;;;;;23.50;9.10;;;5.40;91.90;;;;;;5028943;28;20041;-70
2021/03/01 03:19:00;;;;;;;21.77;9.07;;;5.40;92.00;;;;;;5053361;28;20046;-74
2021/03/01 03:21:26;;;;;;;20.87;8.27;;;5.40;92.00;;;;;;5085416;28;20040;-68
2021/03/01 03:23:54;;;;;;;20.53;8.87;;;5.40;91.90;;;;;;5093314;28;20036;-68
2021/03/01 03:26:20;;;;;;;20.33;8.20;;;5.30;91.70;;;;;;5056130;28;20045;-68
2021/03/01 03:28:46;;;;;;;22.63;8.60;;;5.30;91.80;;;;;;5089820;28;20040;-68
2021/03/01 03:31:12;;;;;;;19.53;8.13;;;5.30;91.80;;;;;;5054604;28;20040;-68
2021/03/01 03:33:39;;;;;;;18.73;8.17;;;5.40;91.90;;;;;;5087332;28;20071;-71
2021/03/01 03:36:06;;;;;;;17.27;7.97;;;5.30;91.80;;;;;;5059098;28;20048;-68
2021/03/01 03:38:38;;;;;;;18.13;8.00;;;5.30;91.80;;;;;;5075264;28;20046;-68
2021/03/01 03:41:07;;;;;;;19.00;7.53;;;5.30;91.90;;;;;;5079102;28;20079;-73
2021/03/01 03:43:34;;;;;;;23.97;8.97;;;5.30;91.70;;;;;;5076444;28;20446;-72
2021/03/01 03:46:02;;;;;;;22.27;8.93;;;5.30;91.80;;;;;;5094724;28;20123;-69
2021/03/01 03:48:28;;;;;;;20.93;8.50;;;5.30;91.80;;;;;;5075509;28;20055;-69
2021/03/01 03:50:57;;;;;;;22.33;9.30;;;5.30;91.90;;;;;;5075987;28;20054;-67
2021/03/01 03:53:28;;;;;;;21.33;8.77;;;5.30;91.90;;;;;;5069428;28;20381;-68
2021/03/01 03:55:57;;;;;;;19.48;8.25;;;5.30;91.90;;;;;;5064856;28;20064;-68
2021/03/01 03:58:29;;;;;;;21.50;8.33;;;5.30;91.90;;;;;;5087461;28;20033;-68
2021/03/01 04:00:57;;;;;;;24.40;9.77;;;5.30;91.90;;;;;;5060635;28;20403;-68
2021/03/01 04:03:25;;;;;;;19.97;8.40;;;5.30;91.90;;;;;;5063891;28;20409;-68
2021/03/01 04:05:54;;;;;;;18.90;8.57;;;5.30;91.90;;;;;;5074141;28;20040;-68
2021/03/01 04:08:20;;;;;;;20.33;8.53;;;5.30;91.90;;;;;;5082802;28;20036;-68
2021/03/01 04:10:50;;;;;;;17.83;8.33;;;5.30;91.90;;;;;;5074997;28;20047;-68
2021/03/01 04:13:16;;;;;;;18.85;8.35;;;5.30;91.90;;;;;;5082967;28;20051;-68
2021/03/01 04:15:48;;;;;;;22.20;8.30;;;5.40;91.90;;;;;;5074116;28;20480;-68
2021/03/01 04:18:20;;;;;;;15.77;7.70;;;5.30;91.90;;;;;;5055482;28;20094;-68
2021/03/01 04:20:47;;;;;;;20.47;8.37;;;5.30;91.70;;;;;;5082908;28;20043;-68
2021/03/01 04:23:15;;;;;;;18.90;8.10;;;5.30;91.70;;;;;;5088863;28;20035;-67
2021/03/01 04:25:43;;;;;;;16.73;7.83;;;5.30;91.80;;;;;;5043997;28;20050;-68
2021/03/01 04:28:10;;;;;;;19.33;8.23;;;5.30;91.80;;;;;;5089608;28;20139;-68
2021/03/01 04:30:37;;;;;;;19.47;8.33;;;5.30;91.80;;;;;;5080477;28;20032;-68
2021/03/01 04:33:03;;;;;;;20.60;8.47;;;5.30;91.80;;;;;;5086395;28;20040;-68
2021/03/01 04:35:30;;;;;;;20.77;8.60;;;5.30;91.80;;;;;;5081686;28;20043;-68
2021/03/01 04:37:56;;;;;;;19.73;8.77;;;5.30;91.70;;;;;;5091240;28;20114;-71
2021/03/01 04:40:22;;;;;;;19.93;8.53;;;5.20;91.70;;;;;;5082840;28;20654;-68
2021/03/01 04:42:48;;;;;;;18.40;7.97;;;5.20;91.90;;;;;;5077345;28;20078;-68
2021/03/01 04:45:16;;;;;;;18.60;7.57;;;5.20;91.70;;;;;;5083592;28;20462;-68
2021/03/01 04:47:43;;;;;;;16.27;7.10;;;5.20;91.80;;;;;;5077734;28;20496;-66
2021/03/01 04:50:13;;;;;;;16.80;6.93;;;5.20;91.80;;;;;;5089808;28;20459;-67
2021/03/01 04:52:40;;;;;;;15.50;6.38;;;5.20;91.80;;;;;;5080116;28;20610;-67
2021/03/01 04:55:07;;;;;;;14.33;6.43;;;5.20;91.80;;;;;;5070658;28;20071;-66
2021/03/01 04:57:33;;;;;;;13.33;6.37;;;5.20;91.80;;;;;;5057583;28;20065;-66
2021/03/01 05:00:00;;;;;;;14.87;5.97;;;5.20;91.70;;;;;;5067137;28;20044;-67
2021/03/01 05:02:27;;;;;;;16.43;6.87;;;5.20;91.70;;;;;;5074069;28;20047;-66
2021/03/01 05:04:55;;;;;;;17.13;7.20;;;5.20;91.60;;;;;;5091420;28;20430;-67
2021/03/01 05:07:23;;;;;;;14.77;6.80;;;5.10;91.80;;;;;;5070955;28;20036;-65
2021/03/01 05:09:50;;;;;;;19.57;7.47;;;5.10;91.80;;;;;;5035077;28;20037;-66
2021/03/01 05:12:15;;;;;;;18.17;7.60;;;5.20;91.80;;;;;;5080912;28;20599;-66
2021/03/01 05:14:41;;;;;;;16.87;7.10;;;5.20;91.80;;;;;;5070393;28;20114;-66
2021/03/01 05:17:06;;;;;;;17.73;7.23;;;5.20;91.80;;;;;;5070820;28;20041;-66
2021/03/01 05:19:32;;;;;;;18.50;7.40;;;5.20;91.80;;;;;;5070578;28;20089;-66
2021/03/01 05:21:58;;;;;;;17.83;7.33;;;5.20;91.70;;;;;;5066999;28;20063;-67
2021/03/01 05:24:24;;;;;;;17.83;7.83;;;5.20;91.70;;;;;;5085364;28;20028;-67
2021/03/01 05:26:50;;;;;;;17.93;7.60;;;5.20;91.70;;;;;;5082204;28;20044;-66
2021/03/01 05:29:16;;;;;;;17.43;8.13;;;5.10;91.70;;;;;;5063091;28;20037;-66
2021/03/01 05:31:42;;;;;;;17.10;7.47;;;5.10;91.70;;;;;;5057209;28;20090;-66
2021/03/01 05:34:07;;;;;;;20.47;8.57;;;5.20;91.80;;;;;;5069258;28;20037;-66
2021/03/01 05:36:33;;;;;;;19.10;8.30;;;5.20;91.80;;;;;;5070879;28;20036;-66
2021/03/01 05:38:58;;;;;;;18.07;7.83;;;5.20;91.70;;;;;;5076826;28;20484;-66
2021/03/01 05:41:25;;;;;;;20.90;8.03;;;5.20;91.80;;;;;;5079074;28;20040;-66
2021/03/01 05:43:52;;;;;;;19.90;8.97;;;5.20;91.70;;;;;;5063017;28;20052;-66
2021/03/01 05:46:18;;;;;;;20.83;8.47;;;5.20;91.70;;;;;;5059292;28;20057;-66
2021/03/01 05:48:46;;;;;;;17.87;8.00;;;5.20;91.80;;;;;;5091018;28;20036;-67
2021/03/01 05:51:13;;;;;;;19.00;7.70;;;5.20;91.70;;;;;;5066033;28;20546;-66
2021/03/01 05:53:41;;;;;;;22.40;8.60;;;5.20;91.70;;;;;;5070771;28;20040;-66
2021/03/01 05:56:07;;;;;;;22.10;9.53;;;5.20;91.50;;;;;;5064279;28;20496;-66
2021/03/01 05:58:34;;;;;;;21.40;9.53;;;5.20;91.50;;;;;;5087508;28;20136;-66
2021/03/01 06:01:01;;;;;;;24.20;9.57;;;5.10;91.50;;;;;;5073049;28;20067;-66
2021/03/01 06:03:34;;;;;;;23.20;11.00;;;5.20;91.60;;;;;;5070788;28;20040;-66
2021/03/01 06:06:01;;;;;;;25.07;9.63;;;5.10;91.60;;;;;;5054903;28;20040;-69
2021/03/01 06:08:27;;;;;;;22.87;9.57;;;5.10;91.60;;;;;;5075024;28;20036;-66
2021/03/01 06:11:00;;;;;;;23.50;9.40;;;5.10;91.60;;;;;;5073769;28;20033;-67
2021/03/01 06:13:27;;;;;;;20.77;9.60;;;5.10;91.60;;;;;;5080729;28;20032;-66
2021/03/01 06:15:57;;;;;;;19.93;8.53;;;5.10;91.60;;;;;;5064312;28;20038;-66
2021/03/01 06:18:24;;;;;;;20.30;7.72;;;5.10;91.70;;;;;;5056138;28;20028;-66
2021/03/01 06:20:51;;;;;;;19.27;8.77;;;5.10;91.70;;;;;;5073227;28;20492;-66
2021/03/01 06:23:30;;;;;;;21.23;8.50;;;5.10;91.70;;;;;;5057989;28;20060;-66
2021/03/01 06:26:19;;;;;;;21.10;9.10;;;5.10;91.70;;;;;;5088132;28;20064;-67
2021/03/01 06:28:46;;;;;;;20.33;9.30;;;5.10;91.70;;;;;;5070354;28;20043;-67
2021/03/01 06:31:35;;;;;;;21.50;9.50;;;5.10;91.60;;;;;;5093751;28;20386;-67
2021/03/01 06:34:19;;;;;;;23.43;9.50;;;5.10;91.50;;;;;;5053528;28;20041;-66
2021/03/01 06:37:09;;;;;;;21.53;10.03;;;5.00;91.50;;;;;;5064784;28;20066;-67
2021/03/01 06:39:48;;;;;;;20.20;8.80;;;5.00;91.40;;;;;;5093435;28;20036;-66
2021/03/01 06:42:19;;;;;;;20.67;8.97;;;5.00;91.60;;;;;;5057009;28;20052;-67
2021/03/01 06:44:58;;;;;;;22.47;9.17;;;5.00;91.60;;;;;;5063916;28;20048;-67
2021/03/01 06:47:44;;;;;;;18.60;8.60;;;4.90;91.70;;;;;;5074076;28;20041;-68
2021/03/01 06:50:32;;;;;;;19.10;8.60;;;5.00;91.70;;;;;;5080593;28;20040;-67
2021/03/01 06:53:11;;;;;;;20.90;8.23;;;5.00;91.60;;;;;;5084292;28;20095;-67
2021/03/01 06:55:37;;;;;;;21.03;8.10;;;5.00;91.70;;;;;;5098050;28;20074;-68
2021/03/01 06:58:16;;;;;;;18.27;8.23;;;5.00;91.60;;;;;;5097806;28;20069;-69
2021/03/01 07:00:42;;;;;;;18.50;8.67;;;5.00;91.70;;;;;;5091147;28;20063;-70
2021/03/01 07:03:23;;;;;;;20.43;8.73;;;5.00;91.60;;;;;;5059868;28;20036;-69
2021/03/01 07:05:50;;;;;;;18.40;8.60;;;5.00;91.60;;;;;;5070248;28;20044;-70
2021/03/01 07:08:44;;;;;;;20.03;8.43;;;5.10;91.70;;;;;;5047830;28;20054;-73
2021/03/01 07:11:24;;;;;;;20.00;7.73;;;5.10;91.70;;;;;;5061565;28;20040;-70
2021/03/01 07:13:50;;;;;;;17.00;7.77;;;5.10;91.60;;;;;;5048434;28;20396;-70
2021/03/01 07:16:16;;;;;;;17.20;7.60;;;5.20;91.50;;;;;;5066918;28;20079;-70
2021/03/01 07:18:42;;;;;;;17.17;8.00;;;5.10;91.40;;;;;;5075579;28;20036;-72
2021/03/01 07:21:10;;;;;;;16.90;7.73;;;5.20;91.60;;;;;;5055832;28;20037;-71
2021/03/01 07:23:37;;;;;;;17.57;8.23;;;5.20;91.50;;;;;;5060189;28;20047;-69
2021/03/01 07:26:04;;;;;;;18.47;8.60;;;5.20;91.50;;;;;;5085618;28;20551;-73
2021/03/01 07:28:32;;;;;;;19.03;8.10;;;5.20;91.50;;;;;;5076895;28;20170;-70
2021/03/01 07:30:59;;;;;;;17.27;7.60;;;5.20;91.40;;;;;;5073289;28;20036;-70
2021/03/01 07:33:25;;;;;;;16.83;7.70;;;5.30;91.50;;;;;;5058393;28;20485;-70
2021/03/01 07:35:51;;;;;;;17.07;6.87;;;5.20;91.20;;;;;;5040273;28;20039;-71
2021/03/01 07:38:18;;;;;;;14.93;7.13;;;5.20;91.10;;;;;;5076496;28;20097;-72
2021/03/01 07:40:44;;;;;;;17.27;8.33;;;5.20;91.20;;;;;;5075442;28;20136;-70
2021/03/01 07:43:12;;;;;;;17.13;7.73;;;5.10;91.30;;;;;;5075588;28;20060;-69
2021/03/01 07:45:43;;;;;;;16.20;7.17;;;5.10;91.20;;;;;;5029463;28;20051;-70
2021/03/01 07:48:13;;;;;;;14.67;7.17;;;5.20;91.30;;;;;;5050998;28;20123;-69
2021/03/01 07:50:43;;;;;;;15.68;6.80;;;5.20;91.50;;;;;;5083079;28;20042;-73
2021/03/01 07:53:48;;;;;;;15.70;7.57;;;5.20;91.50;;;;;;5076460;28;20048;-71
2021/03/01 07:56:23;;;;;;;17.13;7.50;;;5.30;91.50;;;;;;5054200;28;20037;-73
2021/03/01 07:59:00;;;;;;;15.80;7.53;;;5.40;91.40;;;;;;5076039;28;20040;-71
2021/03/01 08:01:26;;;;;;;15.77;6.80;;;5.40;91.40;;;;;;5073106;28;20074;-76
2021/03/01 08:03:52;;;;;;;14.33;6.87;;;5.50;91.30;;;;;;5076933;28;20028;-71
2021/03/01 08:06:18;;;;;;;14.17;6.70;;;5.50;91.00;;;;;;5075473;28;20089;-70
2021/03/01 08:08:52;;;;;;;14.67;7.30;;;5.40;90.80;;;;;;5055684;28;20078;-68
2021/03/01 08:11:39;;;;;;;13.93;6.60;;;5.30;90.90;;;;;;5045030;28;20500;-68
2021/03/01 08:14:13;;;;;;;13.73;6.50;;;5.40;90.80;;;;;;5049906;28;20044;-69
2021/03/01 08:16:39;;;;;;;14.13;6.37;;;5.30;90.80;;;;;;5067868;28;20515;-67
2021/03/01 08:19:05;;;;;;;16.53;7.60;;;5.30;91.10;;;;;;5070636;28;20119;-70
2021/03/01 08:22:03;;;;;;;13.90;6.70;;;5.40;91.50;;;;;;5069544;28;20503;-67
2021/03/01 08:25:02;;;;;;;15.20;6.57;;;5.60;91.60;;;;;;5070215;28;20044;-67
2021/03/01 08:27:28;;;;;;;16.67;7.20;;;5.80;91.30;;;;;;5069876;28;20131;-67
2021/03/01 08:30:25;;;;;;;15.20;7.17;;;5.90;91.20;;;;;;5035719;28;20478;-67
2021/03/01 08:33:09;;;;;;;14.67;6.47;;;6.00;91.10;;;;;;5069287;28;20029;-67
2021/03/01 08:35:44;;;;;;;14.00;6.27;;;6.10;90.90;;;;;;5067743;28;20120;-66
2021/03/01 08:38:11;;;;;;;15.27;6.70;;;6.30;91.10;;;;;;5070965;28;20052;-67
2021/03/01 08:40:49;;;;;;;13.80;6.80;;;6.40;91.20;;;;;;5085316;23;20040;-67
2021/03/01 08:43:34;;;;;;;16.67;7.43;;;6.60;91.00;;;;;;5072679;28;20122;-67
2021/03/01 08:46:00;;;;;;;15.00;7.23;;;6.70;90.70;;;;;;5088533;28;20032;-67
2021/03/01 08:48:27;;;;;;;15.47;7.40;;;6.70;90.60;;;;;;5072092;28;20036;-67
2021/03/01 08:50:54;;;;;;;17.73;7.73;;;6.70;89.80;;;;;;5089160;28;20111;-69
2021/03/01 08:53:27;;;;;;;16.27;7.83;;;6.60;89.10;;;;;;5090473;28;20499;-71
2021/03/01 08:55:57;;;;;;;17.30;8.10;;;6.50;88.50;;;;;;5090922;28;20039;-71
2021/03/01 08:58:29;;;;;;;15.80;7.95;;;6.40;88.10;;;;;;5089749;28;20480;-67
2021/03/01 09:00:57;;;;;;;17.17;8.50;;;6.40;88.20;;;;;;5072744;28;20073;-66
2021/03/01 09:03:48;;;;;;;16.97;8.20;;;6.30;88.20;;;;;;5090690;28;20150;-67
2021/03/01 09:06:18;;;;;;;;;;;6.30;88.30;;;;;;5072723;28;20093;-67
2021/03/01 09:09:07;;;;;;;16.93;8.03;;;6.30;87.70;;;;;;5091476;28;19920;-68
2021/03/01 09:11:32;;;;;;;15.77;7.40;;;6.40;87.50;;;;;;5089661;28;20630;-67
2021/03/01 09:14:01;;;;;;;15.00;7.50;;;6.40;88.20;;;;;;5073108;28;20021;-66
2021/03/01 09:16:29;;;;;;;19.17;7.83;;;6.50;88.80;;;;;;5072746;28;20024;-68
2021/03/01 09:19:03;;;;;;;16.37;7.80;;;6.70;88.90;;;;;;5088420;28;20032;-68
2021/03/01 09:21:31;;;;;;;16.70;8.27;;;6.80;88.60;;;;;;5064477;28;20044;-68
2021/03/01 09:23:58;;;;;;;19.10;8.27;;;6.90;88.30;;;;;;5091328;28;20032;-67
2021/03/01 09:26:32;;;;;;;19.02;9.07;;;6.90;88.20;;;;;;5095112;28;20032;-67
2021/03/01 09:29:03;;;;;;;18.13;8.67;;;7.00;88.40;;;;;;5089369;28;20067;-68
2021/03/01 09:31:39;;;;;;;;;;;7.10;87.90;;;;;;5071287;28;20064;-67
2021/03/01 09:34:07;;;;;;;19.00;8.87;;;7.20;88.00;;;;;;5071019;28;20279;-69
2021/03/01 09:36:33;;;;;;;18.87;8.43;;;7.30;87.80;;;;;;5074073;28;20055;-68
2021/03/01 09:39:01;;;;;;;19.97;9.30;;;7.30;87.50;;;;;;5104725;28;20062;-66
2021/03/01 09:41:41;;;;;;;15.50;7.67;;;7.30;87.30;;;;;;5082462;28;20039;-68
2021/03/01 09:44:07;;;;;;;17.80;8.88;;;7.40;86.90;;;;;;5076414;28;20044;-67
2021/03/01 09:46:34;;;;;;;18.30;8.80;;;7.40;87.00;;;;;;5094449;28;20046;-68
2021/03/01 09:49:05;;;;;;;17.10;9.23;;;7.40;86.70;;;;;;5094131;28;20142;-74
2021/03/01 09:51:31;;;;;;;18.65;8.77;;;7.40;86.80;;;;;;5058758;28;20047;-74
2021/03/01 09:54:02;;;;;;;15.60;7.90;;;7.60;87.10;;;;;;5094648;28;20502;-73
2021/03/01 09:56:45;;;;;;;17.55;8.98;;;7.70;86.70;;;;;;5094506;28;20488;-73
2021/03/01 09:59:12;;;;;;;18.23;8.90;;;7.70;86.40;;;;;;5094744;28;20399;-73
2021/03/01 10:01:39;;;;;;;16.47;8.30;;;7.80;86.30;;;;;;5091735;28;20042;-73
2021/03/01 10:04:05;;;;;;;18.27;8.90;;;7.80;85.40;;;;;;5052635;28;20038;-74
2021/03/01 10:06:38;;;;;;;18.07;8.77;;;7.90;85.60;;;;;;5079151;28;20515;-72
2021/03/01 10:09:09;;;;;;;18.10;8.60;;;8.00;86.10;;;;;;5063611;28;20040;-74
2021/03/01 10:11:35;;;;;;;18.60;8.10;;;8.20;85.10;;;;;;5093485;28;20063;-73
2021/03/01 10:14:07;;;;;;;17.17;8.47;;;8.20;83.30;;;;;;5069397;28;20369;-74
2021/03/01 10:16:41;;;;;;;17.57;8.10;;;8.10;84.30;;;;;;5076551;28;20484;-73
2021/03/01 10:19:18;;;;;;;18.17;9.00;;;8.10;84.30;;;;;;5076097;28;20043;-72
2021/03/01 10:21:46;;;;;;;17.50;8.53;;;8.10;83.00;;;;;;5076022;28;20111;-73
2021/03/01 10:24:15;;;;;;;18.23;8.57;;;8.00;83.30;;;;;;5055351;28;20024;-72
2021/03/01 10:26:57;;;;;;;17.53;9.20;;;8.10;84.20;;;;;;5070059;28;20052;-74
2021/03/01 10:29:34;;;;;;;18.17;8.73;;;8.40;85.10;;;;;;5055513;28;20093;-73
2021/03/01 10:32:01;;;;;;;18.98;9.18;;;8.70;85.10;;;;;;5092777;28;20437;-74
2021/03/01 10:34:28;;;;;;;18.15;9.23;;;9.10;83.40;;;;;;5074314;28;20032;-74
2021/03/01 10:36:55;;;;;;;16.92;8.45;;;9.20;82.70;;;;;;5092212;28;20449;-74
2021/03/01 10:39:32;;;;;;;17.42;9.18;;;9.40;82.50;;;;;;5091379;28;20039;-73
2021/03/01 10:42:12;;;;;;;22.42;8.70;;;9.40;81.30;;;;;;5090280;28;20118;-75
2021/03/01 10:44:43;;;;;;;16.58;8.15;;;9.40;81.30;;;;;;5091251;28;20567;-73
2021/03/01 10:47:23;;;;;;;16.58;8.45;;;9.50;80.20;;;;;;5074581;28;20044;-71
2021/03/01 10:49:54;;;;;;;17.77;8.63;;;9.60;79.40;;;;;;5091234;28;20036;-71
2021/03/01 10:52:20;;;;;;;17.77;9.18;;;9.70;78.70;;;;;;5073384;28;20451;-70
2021/03/01 10:54:46;;;;;;;16.80;8.35;;;9.70;77.00;;;;;;5091393;28;20052;-68
2021/03/01 10:57:15;;;;;;;16.95;8.93;;;9.50;77.40;;;;;;5092001;28;20040;-69
2021/03/01 10:59:41;;;;;;;17.13;8.57;;;9.30;76.30;;;;;;5072819;28;20127;-69
2021/03/01 11:02:07;;;;;;;16.77;8.52;;;9.30;78.60;;;;;;5088264;28;20028;-71
2021/03/01 11:04:34;;;;;;;17.30;8.50;;;9.60;78.90;;;;;;5090957;28;20046;-71
2021/03/01 11:07:00;;;;;;;17.45;8.82;;;10.20;77.50;;;;;;5091254;28;20047;-69
2021/03/01 11:09:26;;;;;;;15.45;8.25;;;11.10;78.10;;;;;;5093236;28;20032;-68
2021/03/01 11:11:53;;;;;;;14.98;8.07;;;12.00;76.20;;;;;;5091477;28;20123;-68
2021/03/01 11:14:20;;;;;;;15.23;8.02;;;12.80;74.60;;;;;;5091534;28;20032;-69
2021/03/01 11:16:46;;;;;;;14.68;8.05;;;13.30;72.70;;;;;;5073358;28;20040;-70
2021/03/01 11:19:13;;;;;;;14.57;7.90;;;13.70;71.10;;;;;;5090782;28;20056;-71
2021/03/01 11:21:40;;;;;;;14.38;8.45;;;14.00;70.20;;;;;;5072097;28;20412;-69
2021/03/01 11:24:07;;;;;;;15.02;7.95;;;14.30;69.40;;;;;;5073424;28;20039;-76
2021/03/01 11:26:32;;;;;;;14.63;7.90;;;14.60;69.00;;;;;;5072823;28;20558;-70
2021/03/01 11:28:58;;;;;;;14.68;7.95;;;14.90;67.50;;;;;;5091254;28;20127;-69
2021/03/01 11:31:25;;;;;;;14.07;8.05;;;15.10;67.40;;;;;;5072982;28;20068;-70
2021/03/01 11:33:51;;;;;;;14.10;7.85;;;15.40;67.30;;;;;;5073829;28;20044;-70
2021/03/01 11:36:17;;;;;;;14.68;7.75;;;16.00;67.60;;;;;;5073252;28;20028;-70
2021/03/01 11:38:43;;;;;;;16.67;9.05;;;16.60;66.80;;;;;;5073695;28;20059;-70
2021/03/01 11:41:14;;;;;;;15.00;8.35;;;17.20;64.90;;;;;;5089785;28;20047;-71
2021/03/01 11:43:40;;;;;;;15.50;8.45;;;17.30;61.30;;;;;;5090208;28;20075;-71
2021/03/01 11:46:05;;;;;;;14.82;8.82;;;16.60;59.20;;;;;;5091405;28;20506;-71
2021/03/01 11:48:31;;;;;;;16.17;8.90;;;15.80;58.90;;;;;;5094889;28;20058;-71
2021/03/01 11:50:56;;;;;;;14.88;8.65;;;15.10;58.60;;;;;;5090550;28;20044;-71
2021/03/01 11:53:22;;;;;;;14.77;8.23;;;14.50;58.50;;;;;;5090354;28;20032;-71
2021/03/01 11:55:48;;;;;;;17.13;9.00;;;13.90;60.50;;;;;;5090828;28;20028;-75
2021/03/01 11:58:14;;;;;;;13.43;8.00;;;13.50;60.30;;;;;;5090729;28;20039;-77
2021/03/01 12:00:41;;;;;;;14.38;7.85;;;13.20;61.50;;;;;;5071267;28;20032;-75
2021/03/01 12:03:11;;;;;;;12.65;7.15;;;13.20;61.70;;;;;;5092516;28;20491;-76
2021/03/01 12:05:39;;;;;;;14.07;7.35;;;13.70;63.50;;;;;;5089418;28;20028;-75
2021/03/01 12:08:05;;;;;;;13.82;7.13;;;14.20;63.20;;;;;;5070661;28;20040;-71
2021/03/01 12:10:31;;;;;;;12.98;7.45;;;15.00;63.10;;;;;;5088985;28;20040;-71
2021/03/01 12:12:57;;;;;;;12.25;6.57;;;16.40;64.10;;;;;;5089092;28;20472;-69
2021/03/01 12:15:23;;;;;;;14.63;7.45;;;18.20;62.60;;;;;;5091594;28;20086;-69
2021/03/01 12:17:49;;;;;;;11.25;7.05;;;19.70;59.50;;;;;;5051372;28;20495;-68
2021/03/01 12:20:14;;;;;;;13.02;7.18;;;20.80;56.20;;;;;;5094005;28;20069;-69
2021/03/01 12:22:40;;;;;;;11.43;6.90;;;21.80;53.40;;;;;;5072510;28;20036;-68
2021/03/01 12:25:07;;;;;;;11.55;6.82;;;22.50;51.10;;;;;;5073952;28;20068;-70
2021/03/01 12:27:32;;;;;;;12.85;7.90;;;22.90;49.40;;;;;;5109457;28;20088;-70
2021/03/01 12:29:58;;;;;;;13.00;7.57;;;23.10;48.70;;;;;;5111928;28;20040;-70
2021/03/01 12:32:24;;;;;;;12.20;7.07;;;23.20;47.60;;;;;;5110763;28;20526;-69
2021/03/01 12:34:50;;;;;;;13.88;7.47;;;23.20;46.90;;;;;;5103403;28;20036;-69
2021/03/01 12:37:16;;;;;;;11.30;6.85;;;23.20;44.90;;;;;;5091615;28;20123;-71
2021/03/01 12:39:42;;;;;;;10.43;6.47;;;23.10;44.30;;;;;;5072137;28;20103;-69
2021/03/01 12:42:09;;;;;;;12.18;7.28;;;23.10;44.00;;;;;;5091305;28;20067;-71
2021/03/01 12:44:36;;;;;;;12.55;7.05;;;23.20;43.00;;;;;;5091007;28;20451;-71
2021/03/01 12:47:03;;;;;;;12.10;6.90;;;23.00;41.70;;;;;;5091458;28;20109;-70
2021/03/01 12:49:29;;;;;;;11.43;6.68;;;22.50;40.40;;;;;;5095623;28;20063;-71
2021/03/01 12:51:55;;;;;;;13.02;6.85;;;22.10;40.50;;;;;;5100229;28;20063;-71
2021/03/01 12:54:21;;;;;;;11.52;6.60;;;21.70;41.30;;;;;;5099589;28;20032;-73